METAR AND TAF INFORMATION
METAR FOR LIPE
ADDS - METARS form results

(2345 UTC 20 April 2018)
Data provider http://aviationweather.gov/adds/metars/
 
METAR text: LIPE 202320Z 22003KT 190V250 CAVOK 15/10 Q1021
Conditions at: LIPE (BOLOGNA/BORGO (A, IT) observed 2320 UTC 20 April 2018
Temperature: 15.0°C (59°F)
Dewpoint: 10.0°C (50°F) [RH = 72%]
Pressure (altimeter): 30.15 inches Hg (1021.0 mb)
Winds: from the SW (220 degrees) at 3 MPH (3 knots; 1.6 m/s)
Visibility: 6 or more miles (10+ km)
Ceiling: ceiling and visibility are OK
Clouds: unknown
Weather: no significant weather observed at this time

METAR text: LIPE 202250Z 22003KT 190V260 CAVOK 15/10 Q1021
Conditions at: LIPE (BOLOGNA/BORGO (A, IT) observed 2250 UTC 20 April 2018
Temperature: 15.0°C (59°F)
Dewpoint: 10.0°C (50°F) [RH = 72%]
Pressure (altimeter): 30.15 inches Hg (1021.0 mb)
Winds: from the SW (220 degrees) at 3 MPH (3 knots; 1.6 m/s)
Visibility: 6 or more miles (10+ km)
Ceiling: ceiling and visibility are OK
Clouds: unknown
Weather: no significant weather observed at this time

Forecast for: LIPE (BOLOGNA/BORGO (A, IT)
Text: TAF LIPE 202300Z 2100/2124 VRB05KT CAVOK
Forecast period: 0000 UTC 21 April 2018 to 0000 UTC 22 April 2018
Forecast type: FROM: standard forecast or significant change
Winds: variable direction winds at 6 MPH (5 knots; 2.6 m/s)
Visibility: 6 or more miles (10+ km)
Clouds: not forecast
Weather: NSW  (no significant weather)
Forecast for: LIPE (BOLOGNA/BORGO (A, IT)
Text: TAF LIPE 202300Z 2100/2124 VRB05KT CAVOK
Forecast period: 0000 UTC 21 April 2018 to 0000 UTC 22 April 2018
Forecast type: FROM: standard forecast or significant change
Winds: variable direction winds at 6 MPH (5 knots; 2.6 m/s)
Visibility: 6 or more miles (10+ km)
Clouds: not forecast
Weather: NSW  (no significant weather)

 AIRPORT MAP

 RUNWAY INFORMATION
Runway 12 Runway length 9186 ft Runway width 150 ft
Runway elevation 120 ft Runway displaced threshold 1007 ft Runway heading 117
Runway 30 Runway length 9186 ft Runway width 150 ft
Runway elevation 120 ft Runway displaced threshold 1188 ft Runway heading 297

 AIRPORT FREQUENCIES
Type APP Name APP Frequency 120.1 MHZ
Type ATIS Name ATIS Frequency 134.875 MHZ
Type GND Name GND Frequency 129.925 MHZ
Type TWR Name TWR Frequency 120.8 MHZ

 AIRPORT NEAR NAVIGATION AIDS
Type VOR-DME Name Bologna Frequency 112200 KHZ
Type NDB Name Bologna Frequency 413 KHZ



v2.6.1